Aviation Digital Data Service (ADDS)

Output produced by METARs form (2004 UTC 26 September 2021)
found at http://www.aviationweather.gov/metar/data/
 
Forecast for: KSMF (SACRAMENTO/METRO, CA, US)
Text: KSMF 261727Z 2618/2718 17012KT P6SM FEW250
Forecast period: 1800 UTC 26 September 2021 to 1800 UTC 27 September 2021
Forecast type: FROM: standard forecast or significant change
Winds: from the S (170 degrees) at 14 MPH (12 knots; 6.2 m/s)
Visibility: 6 or more miles (10+ km)
Ceiling: at least 12,000 feet AGL
Clouds: few clouds at 25000 feet AGL
Weather: no significant weather forecast for this period